Sparta, NC

1:32 AM EST on February 27, 2015 (GMT -0500)
Wilkes County | Change Station
CLOSE
Current Station
Airport
Location: North Wilkesboro,
Elevation: 1299 ft
Nearby Weather Stations
Active Advisory: Winter Weather Advisory Active Notice: Local Storm Report

Elev 1299 ft 36.22 °N, 81.10 °W | Updated 17 minutes ago

Overcast
Overcast
32 °F
Feels Like 29 °F
N
4
Wind Variable Wind from NW

Today
High -- | Low -- °F
--% Chance of Precip.
Yesterday
High -- | Low -- °F
Precip. -- in
6:57 AM 6:16 PM
Waxing Gibbous, 66% visible
Pressure 30.18 in
Visibility 10.0 miles
Clouds Scattered Clouds 4800 ft
Windchill 29 °F
Dew Point 23 °F
Humidity 69%
Rainfall 0.00 in
Snow Depth Not available.
UV 0 out of 12
Pollen .70 out of 12
Air Quality Not available.
Flu Activity Not available.
METAR KUKF 270615Z AUTO 32003KT 10SM SCT048 00/M05 A3018 RMK AO2

More Conditions Fewer Conditions

Pressure 30.18 in
Visibility 10.0 miles
Clouds Scattered Clouds 4800 ft
Windchill 29 °F
Dew Point 23 °F
Humidity 69%
Rainfall 0.00 in
Snow Depth Not available.
UV 0 out of 12
Pollen .70 out of 12
Air Quality Not available.
Flu Activity Not available.
METAR KUKF 270615Z AUTO 32003KT 10SM SCT048 00/M05 A3018 RMK AO2

More Conditions Fewer Conditions

10-Day Weather Forecast

Almanac

Astronomy

Feb. 27, 2015 Rise Set
Actual Time
Civil Twilight
Nautical Twilight
Astronomical Twilight
Moon
Length of Visible Light
Length of Day
Tomorrow will be .
, % of the Moon is Illuminated

Today's Extremes

State Highs State Lows

Community

WunderPhotos

Upload Photos

1,800,646 photos uploaded!

WunderBlogs® & News

Nearby

Air Quality

  Air Quality AQ Index Pollutant
Not available.

Snow Depth

Station Depth Elevation

Earthquake Activity

City Distance Mag. Time & Date
Minimum magnitude displayed is 2.5.

Coastal Water Temperatures

Place Temperature

Nearby Weather Stations

Winter Weather Advisory
Statement as of 9:57 PM EST on February 26, 2015

... Winter Weather Advisory remains in effect until noon EST
Friday...

* locations... northern mountains of North Carolina.

* Hazard types... black ice.

* Timing... through midday Friday.

* Impacts... icy surfaces such as roads... sidewalks... driveways... and
parking lots.

* Temperatures... lows 17 to 22.

Precautionary/preparedness actions...

A Winter Weather Advisory for black ice means that moisture on
surfaces is expected to freeze tonight... but still look like it
is only wet. This may cause travel difficulties. Be prepared for
slippery roads... sidewalks and parking lots... and use caution
while driving.